AEZ23R LIMJ-LIRF
Flight info
| Callsign | AEZ23R |
|---|---|
| Flight time | N/A |
| Altitude | 35000 |
| Route | UNITA DCT KONER DCT BAKRO DCT ELB/N0450F340 DCT ELKAP |
| Aircraft | B738/M-SDE2E3FGHIRWXY/LB1 |
Departure
| Time | 2026-04-26 18:24 |
|---|---|
| Airport | Genoa Cristoforo Colombo Airport (LIMJ) |
Arrival
| Time | N/A |
|---|---|
| Airport | Rome–Fiumicino Leonardo da Vinci International Airport (LIRF) |
| Time | Latitude | Longitude | Altitude | Speed | Heading |
|---|---|---|---|---|---|
| 2026-04-26 18:01 | 44.41403 | 8.85105 | 17 ft | 0 kts | 14° |
| 2026-04-26 18:15 | 44.41398 | 8.85103 | 17 ft | 4 kts | 13° |
| 2026-04-26 18:15 | 44.41371 | 8.85097 | 19 ft | 4 kts | 1° |
| 2026-04-26 18:15 | 44.41345 | 8.85100 | 21 ft | 4 kts | 340° |
| 2026-04-26 18:15 | 44.41324 | 8.85119 | 17 ft | 4 kts | 295° |
| 2026-04-26 18:16 | 44.41321 | 8.85127 | 17 ft | 0 kts | 285° |
| 2026-04-26 18:19 | 44.41321 | 8.85125 | 17 ft | 1 kts | 271° |
| 2026-04-26 18:19 | 44.41308 | 8.85127 | 20 ft | 3 kts | 148° |
| 2026-04-26 18:20 | 44.41308 | 8.85183 | 17 ft | 11 kts | 88° |
| 2026-04-26 18:20 | 44.41283 | 8.85258 | 17 ft | 7 kts | 143° |
| 2026-04-26 18:20 | 44.41237 | 8.85285 | 17 ft | 9 kts | 184° |
| 2026-04-26 18:20 | 44.41191 | 8.85271 | 17 ft | 11 kts | 194° |
| 2026-04-26 18:21 | 44.41122 | 8.85245 | 17 ft | 6 kts | 195° |
| 2026-04-26 18:21 | 44.41098 | 8.85236 | 14 ft | 1 kts | 196° |
| 2026-04-26 18:21 | 44.41082 | 8.85228 | 13 ft | 4 kts | 201° |
| 2026-04-26 18:21 | 44.41054 | 8.85197 | 12 ft | 5 kts | 231° |
| 2026-04-26 18:22 | 44.41025 | 8.85165 | 12 ft | 6 kts | 181° |
| 2026-04-26 18:22 | 44.40987 | 8.85240 | 12 ft | 15 kts | 105° |
| 2026-04-26 18:22 | 44.40951 | 8.85425 | 18 ft | 25 kts | 105° |
| 2026-04-26 18:22 | 44.40904 | 8.85661 | 20 ft | 25 kts | 105° |
| 2026-04-26 18:23 | 44.40861 | 8.85883 | 20 ft | 23 kts | 105° |
| 2026-04-26 18:23 | 44.40872 | 8.86035 | 21 ft | 14 kts | 86° |
| 2026-04-26 18:23 | 44.40830 | 8.86044 | 21 ft | 8 kts | 264° |
| 2026-04-26 18:23 | 44.40844 | 8.85968 | 22 ft | 9 kts | 285° |
| 2026-04-26 18:24 | 44.40892 | 8.85723 | 21 ft | 56 kts | 285° |
| 2026-04-26 18:24 | 44.41058 | 8.84880 | 17 ft | 121 kts | 285° |
| 2026-04-26 18:24 | 44.41318 | 8.83548 | 117 ft | 159 kts | 284° |
| 2026-04-26 18:24 | 44.41595 | 8.82136 | 883 ft | 148 kts | 284° |
| 2026-04-26 18:25 | 44.41893 | 8.80652 | 1274 ft | 165 kts | 285° |
| 2026-04-26 18:25 | 44.42057 | 8.79004 | 1658 ft | 184 kts | 256° |
| 2026-04-26 18:25 | 44.41273 | 8.77631 | 2147 ft | 187 kts | 202° |
| 2026-04-26 18:25 | 44.40021 | 8.77620 | 2794 ft | 185 kts | 153° |
| 2026-04-26 18:26 | 44.38934 | 8.78628 | 3391 ft | 194 kts | 152° |
| 2026-04-26 18:26 | 44.37644 | 8.79426 | 3743 ft | 209 kts | 154° |
| 2026-04-26 18:26 | 44.36323 | 8.80338 | 4345 ft | 213 kts | 152° |
| 2026-04-26 18:26 | 44.34984 | 8.81292 | 4958 ft | 220 kts | 153° |
| 2026-04-26 18:27 | 44.33487 | 8.82152 | 5195 ft | 246 kts | 159° |
| 2026-04-26 18:27 | 44.31808 | 8.83016 | 5525 ft | 265 kts | 159° |
| 2026-04-26 18:27 | 44.30047 | 8.83913 | 6132 ft | 273 kts | 159° |
| 2026-04-26 18:27 | 44.28243 | 8.84837 | 6845 ft | 277 kts | 159° |
| 2026-04-26 18:28 | 44.26447 | 8.85763 | 7580 ft | 279 kts | 159° |
| 2026-04-26 18:28 | 44.24616 | 8.86712 | 8331 ft | 282 kts | 159° |
| 2026-04-26 18:28 | 44.22763 | 8.87677 | 9081 ft | 286 kts | 159° |
| 2026-04-26 18:28 | 44.20887 | 8.88657 | 9860 ft | 290 kts | 159° |
| 2026-04-26 18:29 | 44.18983 | 8.89653 | 10512 ft | 298 kts | 159° |
| 2026-04-26 18:29 | 44.16958 | 8.90715 | 10701 ft | 323 kts | 159° |
| 2026-04-26 18:29 | 44.14782 | 8.91855 | 10877 ft | 345 kts | 159° |
| 2026-04-26 18:29 | 44.12479 | 8.93061 | 11274 ft | 359 kts | 159° |
| 2026-04-26 18:30 | 44.10121 | 8.94295 | 11907 ft | 364 kts | 159° |
| 2026-04-26 18:30 | 44.07741 | 8.95539 | 12640 ft | 367 kts | 159° |
| 2026-04-26 18:30 | 44.05340 | 8.96794 | 13370 ft | 371 kts | 159° |
| 2026-04-26 18:30 | 44.02909 | 8.98064 | 13986 ft | 376 kts | 159° |
| 2026-04-26 18:31 | 44.00491 | 8.99326 | 14124 ft | 377 kts | 159° |
| 2026-04-26 18:31 | 43.97984 | 9.00632 | 14458 ft | 383 kts | 159° |
| 2026-04-26 18:31 | 43.95498 | 9.01986 | 15211 ft | 384 kts | 155° |
| 2026-04-26 18:31 | 43.93181 | 9.03829 | 16004 ft | 385 kts | 144° |
| 2026-04-26 18:32 | 43.91080 | 9.06162 | 16693 ft | 389 kts | 140° |
| 2026-04-26 18:32 | 43.89002 | 9.08604 | 17325 ft | 394 kts | 140° |
| 2026-04-26 18:32 | 43.86931 | 9.11054 | 17965 ft | 399 kts | 140° |
| 2026-04-26 18:32 | 43.84805 | 9.13559 | 18580 ft | 403 kts | 140° |
| 2026-04-26 18:33 | 43.82651 | 9.16081 | 19147 ft | 407 kts | 141° |
| 2026-04-26 18:33 | 43.80473 | 9.18613 | 19746 ft | 410 kts | 141° |
| 2026-04-26 18:33 | 43.78278 | 9.21153 | 20333 ft | 413 kts | 141° |
| 2026-04-26 18:33 | 43.76062 | 9.23709 | 20907 ft | 416 kts | 141° |
| 2026-04-26 18:34 | 43.73826 | 9.26283 | 21460 ft | 420 kts | 141° |
| 2026-04-26 18:34 | 43.71572 | 9.28875 | 22000 ft | 423 kts | 141° |
| 2026-04-26 18:34 | 43.69296 | 9.31489 | 22537 ft | 426 kts | 142° |
| 2026-04-26 18:34 | 43.67003 | 9.34122 | 23067 ft | 430 kts | 142° |
| 2026-04-26 18:35 | 43.64694 | 9.36770 | 23584 ft | 433 kts | 142° |
| 2026-04-26 18:35 | 43.62397 | 9.39403 | 24034 ft | 436 kts | 142° |
| 2026-04-26 18:35 | 43.60054 | 9.42085 | 24472 ft | 438 kts | 142° |
| 2026-04-26 18:35 | 43.57701 | 9.44777 | 24882 ft | 441 kts | 142° |
| 2026-04-26 18:36 | 43.55332 | 9.47485 | 25286 ft | 444 kts | 141° |
| 2026-04-26 18:36 | 43.52940 | 9.50217 | 25668 ft | 448 kts | 141° |
| 2026-04-26 18:36 | 43.50531 | 9.52963 | 26054 ft | 451 kts | 141° |
| 2026-04-26 18:36 | 43.48106 | 9.55720 | 26443 ft | 453 kts | 141° |
| 2026-04-26 18:37 | 43.45660 | 9.58495 | 26816 ft | 456 kts | 141° |
| 2026-04-26 18:37 | 43.43195 | 9.61288 | 27183 ft | 459 kts | 141° |
| 2026-04-26 18:37 | 43.40723 | 9.64086 | 27556 ft | 461 kts | 141° |
| 2026-04-26 18:37 | 43.38241 | 9.66894 | 27921 ft | 463 kts | 141° |
| 2026-04-26 18:38 | 43.35740 | 9.69721 | 28292 ft | 465 kts | 141° |
| 2026-04-26 18:38 | 43.33243 | 9.72542 | 28747 ft | 465 kts | 141° |
| 2026-04-26 18:38 | 43.30745 | 9.75361 | 29169 ft | 466 kts | 141° |
| 2026-04-26 18:38 | 43.28228 | 9.78197 | 29144 ft | 469 kts | 141° |
| 2026-04-26 18:39 | 43.23251 | 9.83800 | 29154 ft | 462 kts | 141° |
| 2026-04-26 18:39 | 43.18277 | 9.89385 | 29163 ft | 462 kts | 141° |
| 2026-04-26 18:40 | 43.13289 | 9.94975 | 29161 ft | 463 kts | 141° |
| 2026-04-26 18:40 | 43.08291 | 10.00563 | 29156 ft | 464 kts | 141° |
| 2026-04-26 18:41 | 43.03291 | 10.06143 | 29158 ft | 464 kts | 141° |
| 2026-04-26 18:41 | 42.98319 | 10.11682 | 29158 ft | 464 kts | 141° |
| 2026-04-26 18:42 | 42.93316 | 10.17247 | 29153 ft | 463 kts | 141° |
| 2026-04-26 18:42 | 42.88321 | 10.22788 | 29157 ft | 463 kts | 141° |
| 2026-04-26 18:43 | 42.83325 | 10.28319 | 29150 ft | 462 kts | 141° |
| 2026-04-26 18:43 | 42.78329 | 10.33835 | 29155 ft | 462 kts | 141° |
| 2026-04-26 18:44 | 42.74003 | 10.40189 | 29163 ft | 460 kts | 116° |
| 2026-04-26 18:44 | 42.72902 | 10.44253 | 29152 ft | 459 kts | 101° |
| 2026-04-26 18:44 | 42.72581 | 10.48560 | 29165 ft | 457 kts | 90° |
| 2026-04-26 18:45 | 42.72395 | 10.57142 | 28888 ft | 445 kts | 91° |
| 2026-04-26 18:45 | 42.72239 | 10.61276 | 28719 ft | 432 kts | 93° |
| 2026-04-26 18:45 | 42.71653 | 10.65223 | 28435 ft | 423 kts | 111° |
| 2026-04-26 18:46 | 42.70269 | 10.68717 | 28002 ft | 418 kts | 122° |
| 2026-04-26 18:46 | 42.68716 | 10.72034 | 27540 ft | 414 kts | 122° |
| 2026-04-26 18:46 | 42.67170 | 10.75318 | 27072 ft | 411 kts | 122° |
| 2026-04-26 18:46 | 42.65642 | 10.78579 | 26629 ft | 407 kts | 122° |
| 2026-04-26 18:47 | 42.64139 | 10.81811 | 26189 ft | 404 kts | 122° |
| 2026-04-26 18:47 | 42.62651 | 10.85029 | 25761 ft | 401 kts | 122° |
| 2026-04-26 18:47 | 42.61178 | 10.88226 | 25328 ft | 398 kts | 122° |
| 2026-04-26 18:47 | 42.59733 | 10.91364 | 24906 ft | 396 kts | 122° |
| 2026-04-26 18:48 | 42.58262 | 10.94559 | 24481 ft | 393 kts | 122° |
| 2026-04-26 18:48 | 42.56833 | 10.97659 | 24064 ft | 391 kts | 122° |
| 2026-04-26 18:48 | 42.55391 | 11.00784 | 23611 ft | 390 kts | 122° |
| 2026-04-26 18:48 | 42.53956 | 11.03892 | 23128 ft | 388 kts | 122° |
| 2026-04-26 18:49 | 42.52529 | 11.06978 | 22676 ft | 385 kts | 122° |
| 2026-04-26 18:49 | 42.51111 | 11.10040 | 22244 ft | 382 kts | 122° |
| 2026-04-26 18:49 | 42.49701 | 11.13084 | 21823 ft | 379 kts | 122° |
| 2026-04-26 18:49 | 42.48301 | 11.16105 | 21412 ft | 376 kts | 121° |
| 2026-04-26 18:50 | 42.46912 | 11.19097 | 21002 ft | 374 kts | 121° |
| 2026-04-26 18:50 | 42.45530 | 11.22071 | 20598 ft | 371 kts | 121° |
| 2026-04-26 18:50 | 42.44236 | 11.25081 | 20186 ft | 368 kts | 111° |
| 2026-04-26 18:50 | 42.43631 | 11.28410 | 19800 ft | 363 kts | 97° |
| 2026-04-26 18:51 | 42.43279 | 11.31788 | 19391 ft | 361 kts | 96° |
| 2026-04-26 18:51 | 42.42941 | 11.35113 | 18971 ft | 361 kts | 96° |
| 2026-04-26 18:51 | 42.42588 | 11.38475 | 18562 ft | 360 kts | 96° |
| 2026-04-26 18:51 | 42.42224 | 11.41819 | 18123 ft | 358 kts | 96° |
| 2026-04-26 18:52 | 42.41855 | 11.45138 | 17677 ft | 356 kts | 97° |
| 2026-04-26 18:52 | 42.41607 | 11.47334 | 17403 ft | 355 kts | 97° |
| 2026-04-26 18:52 | 42.41111 | 11.51691 | 17120 ft | 344 kts | 97° |
| 2026-04-26 18:52 | 42.40670 | 11.54828 | 16946 ft | 336 kts | 107° |